Terminal Aerodrome Forecast
Issued by NWS Sterling, VA

Home | Current Version | Previous Version | Text Only | Print | Product List | Glossary On
Versions: 1 2 3 4 5 6 7 8 9 10 11 12 13
000
FTUS41 KLWX 260541 RRA
TAFCHO
TAF
KCHO 260541Z 2606/2706 06004KT 5SM -RA OVC005
     FM261300 01004KT P6SM OVC008
     FM261500 02004KT P6SM OVC010
     FM261700 01004KT P6SM OVC015
     FM261800 36004KT P6SM OVC025
     FM262100 36004KT P6SM BKN040=

USA.gov is the U.S. government's official web portal to all federal, state and local government web resources and services.